createdAt,value
2018-11-01T00:13:40.208Z,8.07
2018-11-01T00:16:08.635Z,8.03
2018-11-01T00:18:37.061Z,8.50
2018-11-01T00:21:06.674Z,7.90
2018-11-01T00:23:35.120Z,8.03
2018-11-01T00:26:03.538Z,8.33
2018-11-01T00:28:31.942Z,8.00
2018-11-01T00:31:00.395Z,8.30
2018-11-01T00:33:28.805Z,7.50
2018-11-01T00:35:57.218Z,7.73
2018-11-01T00:38:25.673Z,8.50
2018-11-01T00:40:54.070Z,8.70
2018-11-01T00:43:22.486Z,8.67
2018-11-01T00:45:50.945Z,8.83
2018-11-01T00:48:19.414Z,9.53
2018-11-01T00:50:47.829Z,8.83
2018-11-01T00:53:16.258Z,8.33
2018-11-01T00:55:44.687Z,8.83
2018-11-01T00:58:13.098Z,7.97
2018-11-01T01:00:41.558Z,8.07
2018-11-01T01:03:09.959Z,7.23
2018-11-01T01:22:59.595Z,8.33
2018-11-01T01:42:53.940Z,8.57
2018-11-01T01:45:23.054Z,8.63
2018-11-01T01:47:51.470Z,8.53
2018-11-01T01:50:20.480Z,9.43
2018-11-01T02:10:12.003Z,8.90
2018-11-01T02:12:40.771Z,10.07
2018-11-01T02:15:11.721Z,10.07
2018-11-01T02:17:40.397Z,9.40
2018-11-01T02:20:10.981Z,9.57
2018-11-01T02:22:39.405Z,9.67
2018-11-01T02:25:08.198Z,8.97
2018-11-01T02:27:42.039Z,8.60
2018-11-01T02:30:14.458Z,8.97
2018-11-01T02:32:43.525Z,8.37
2018-11-01T02:35:15.374Z,8.30
2018-11-01T02:37:44.496Z,9.10
2018-11-01T02:40:13.452Z,8.50
2018-11-01T02:42:42.445Z,9.03
2018-11-01T02:45:11.878Z,8.33
2018-11-01T02:47:40.455Z,8.23
2018-11-01T02:50:10.776Z,9.37
2018-11-01T02:52:39.521Z,8.73
2018-11-01T02:55:08.675Z,9.57
2018-11-01T02:57:37.627Z,9.30
2018-11-01T03:00:09.243Z,8.87
2018-11-01T03:02:37.709Z,8.83
2018-11-01T03:05:06.902Z,8.77
2018-11-01T03:07:35.434Z,9.00
2018-11-01T03:10:04.110Z,8.90
2018-11-01T03:12:32.516Z,8.60
2018-11-01T03:15:00.982Z,9.63
2018-11-01T03:17:29.389Z,9.73
2018-11-01T03:19:57.814Z,9.27
2018-11-01T03:22:26.242Z,9.37
2018-11-01T03:24:54.648Z,9.80
2018-11-01T03:27:23.070Z,8.70
2018-11-01T03:29:51.503Z,9.40
2018-11-01T03:49:41.203Z,8.07
2018-11-01T04:09:29.433Z,9.37
2018-11-01T04:29:18.784Z,7.93
2018-11-01T04:31:47.209Z,8.10
2018-11-01T04:34:15.618Z,8.23
2018-11-01T04:36:44.030Z,8.03
2018-11-01T04:39:12.550Z,8.63
2018-11-01T04:41:40.983Z,8.70
2018-11-01T04:44:09.469Z,8.40
2018-11-01T04:46:37.902Z,9.20
2018-11-01T04:49:06.870Z,8.87
2018-11-01T05:08:56.101Z,8.30
2018-11-01T05:11:24.518Z,7.87
2018-11-01T05:13:52.954Z,8.60
2018-11-01T05:16:21.412Z,7.83
2018-11-01T05:18:49.822Z,8.07
2018-11-01T05:21:18.233Z,8.50
2018-11-01T05:23:46.659Z,8.37
2018-11-01T05:26:15.057Z,8.13
2018-11-01T05:28:43.449Z,7.83
2018-11-01T05:31:11.905Z,8.03
2018-11-01T05:33:40.311Z,7.50
2018-11-01T05:36:08.719Z,8.37
2018-11-01T05:38:37.176Z,8.40
2018-11-01T05:58:26.816Z,7.60
2018-11-01T06:00:55.242Z,7.40
2018-11-01T06:03:23.641Z,7.67
2018-11-01T06:05:52.060Z,8.53
2018-11-01T06:08:25.742Z,8.47
2018-11-01T06:10:54.195Z,8.10
2018-11-01T06:13:22.640Z,7.60
2018-11-01T06:15:51.092Z,8.20
2018-11-01T06:36:14.557Z,7.67
2018-11-01T06:38:43.129Z,7.30
2018-11-01T06:41:11.788Z,7.23
2018-11-01T06:43:40.272Z,7.30
2018-11-01T07:03:29.715Z,8.53
2018-11-01T07:05:58.105Z,8.00
2018-11-01T07:08:26.774Z,8.23
2018-11-01T07:10:55.190Z,8.30
2018-11-01T07:13:23.601Z,8.27
2018-11-01T07:15:52.043Z,8.60
2018-11-01T07:18:20.485Z,8.83
2018-11-01T07:20:48.898Z,9.30
2018-11-01T07:23:17.307Z,9.00
2018-11-01T07:43:06.612Z,10.17
2018-11-01T07:45:35.009Z,10.27
2018-11-01T07:48:03.436Z,10.00
2018-11-01T07:50:31.882Z,8.87
2018-11-01T07:53:00.404Z,9.10
2018-11-01T07:55:28.709Z,9.83
2018-11-01T07:57:57.171Z,9.17
2018-11-01T08:00:25.601Z,10.07
2018-11-01T08:02:54.002Z,10.33
2018-11-01T08:22:44.425Z,8.37
2018-11-01T08:25:13.373Z,8.57
2018-11-01T08:27:42.510Z,8.73
2018-11-01T08:30:13.214Z,9.03
2018-11-01T08:50:02.395Z,8.87
2018-11-01T08:52:30.800Z,8.83
2018-11-01T08:54:59.235Z,8.00
2018-11-01T08:57:27.676Z,8.80
2018-11-01T08:59:56.403Z,8.80
2018-11-01T09:02:24.813Z,8.20
2018-11-01T09:04:53.214Z,9.17
2018-11-01T09:24:43.404Z,8.33
2018-11-01T09:27:11.866Z,7.67
2018-11-01T09:29:40.249Z,8.07
2018-11-01T09:32:08.771Z,7.27
2018-11-01T09:34:37.284Z,7.03
2018-11-01T09:37:05.720Z,7.83
2018-11-01T09:56:55.049Z,7.67
2018-11-01T09:59:23.462Z,41.00
2018-11-01T10:01:51.894Z,41.43
2018-11-01T10:04:20.508Z,54.73
2018-11-01T10:06:48.964Z,52.17
2018-11-01T10:09:17.371Z,43.53
2018-11-01T10:11:45.966Z,14.20
2018-11-01T10:14:14.679Z,7.80
2018-11-01T10:16:43.306Z,5.50
2018-11-01T10:19:12.027Z,6.00
2018-11-01T10:21:40.480Z,5.90
2018-11-01T10:41:30.066Z,4.60
2018-11-01T10:43:58.481Z,5.63
2018-11-01T10:46:26.890Z,4.30
2018-11-01T10:48:55.317Z,4.40
2018-11-01T10:51:23.746Z,4.07
2018-11-01T11:11:11.552Z,3.83
2018-11-01T11:31:01.557Z,4.00
2018-11-01T11:33:30.170Z,3.73
2018-11-01T11:35:58.680Z,4.20
2018-11-01T11:38:27.041Z,4.47
2018-11-01T11:58:15.849Z,4.47
2018-11-01T12:00:44.277Z,4.40
2018-11-01T12:03:12.700Z,4.10
2018-11-01T12:05:41.512Z,4.00
2018-11-01T12:08:09.973Z,4.22
2018-11-01T12:10:38.391Z,3.90
2018-11-01T12:13:06.882Z,3.43
2018-11-01T12:15:35.317Z,3.50
2018-11-01T12:35:23.666Z,3.27
2018-11-01T12:37:52.094Z,3.30
2018-11-01T12:40:20.478Z,3.00
2018-11-01T12:42:49.088Z,3.30
2018-11-01T12:45:17.495Z,2.87
2018-11-01T12:47:45.905Z,3.27
2018-11-01T12:50:16.016Z,3.10
2018-11-01T12:52:44.413Z,3.17
2018-11-01T12:55:12.842Z,2.80
2018-11-01T12:57:41.304Z,3.33
2018-11-01T13:00:11.218Z,3.37
2018-11-01T13:02:40.677Z,2.63
2018-11-01T13:05:09.037Z,3.23
2018-11-01T13:07:37.458Z,3.10
2018-11-01T13:10:06.136Z,3.07
2018-11-01T13:12:34.894Z,3.33
2018-11-01T13:15:03.338Z,3.20
2018-11-01T13:17:32.085Z,3.37
2018-11-01T13:37:20.350Z,3.83
2018-11-01T13:39:49.041Z,3.97
2018-11-01T13:42:17.396Z,3.70
2018-11-01T14:02:07.371Z,3.80
2018-11-01T14:04:35.852Z,3.53
2018-11-01T14:07:04.301Z,3.57
2018-11-01T14:09:33.334Z,3.60
2018-11-01T14:12:01.810Z,3.83
2018-11-01T14:14:30.638Z,3.20
2018-11-01T14:16:59.002Z,4.00
2018-11-01T14:19:27.427Z,3.70
2018-11-01T14:21:55.995Z,3.70
2018-11-01T14:24:25.126Z,3.70
2018-11-01T14:26:53.563Z,3.83
2018-11-01T14:29:21.983Z,4.03
2018-11-01T14:31:50.418Z,3.47
2018-11-01T14:34:18.830Z,3.60
2018-11-01T14:54:07.438Z,3.47
2018-11-01T15:13:56.512Z,3.60
2018-11-01T15:16:24.947Z,3.60
2018-11-01T15:36:13.777Z,3.90
2018-11-01T15:38:42.232Z,4.03
2018-11-01T15:41:10.713Z,3.90
2018-11-01T15:43:39.422Z,3.60
2018-11-01T15:46:08.358Z,3.60
2018-11-01T15:48:36.814Z,3.63
2018-11-01T16:08:26.185Z,4.40
2018-11-01T16:10:55.423Z,4.43
2018-11-01T16:13:23.844Z,4.60
2018-11-01T16:15:52.638Z,4.50
2018-11-01T16:18:21.057Z,5.30
2018-11-01T16:20:49.458Z,5.30
2018-11-01T16:23:18.151Z,5.33
2018-11-01T16:25:46.505Z,5.47
2018-11-01T16:28:14.932Z,5.17
2018-11-01T16:30:43.542Z,5.20
2018-11-01T16:33:11.979Z,5.30
2018-11-01T16:35:40.405Z,5.77
2018-11-01T16:38:08.913Z,5.23
2018-11-01T16:40:37.313Z,5.67
2018-11-01T17:00:27.576Z,5.67
2018-11-01T17:02:55.837Z,5.70
2018-11-01T17:05:24.265Z,5.73
2018-11-01T17:07:52.871Z,5.70
2018-11-01T17:10:21.286Z,5.37
2018-11-01T17:12:49.696Z,5.37
2018-11-01T17:15:18.192Z,4.90
2018-11-01T17:35:09.180Z,5.50
2018-11-01T17:54:58.086Z,6.63
2018-11-01T18:14:47.174Z,6.63
2018-11-01T18:17:16.105Z,11.30
2018-11-01T18:19:44.606Z,10.23
2018-11-01T18:22:13.036Z,10.87
2018-11-01T18:42:02.822Z,6.90
2018-11-01T18:44:31.257Z,6.50
2018-11-01T18:46:59.832Z,6.47
2018-11-01T18:49:28.447Z,6.93
2018-11-01T18:51:56.870Z,5.87
2018-11-01T18:54:25.297Z,5.77
2018-11-01T18:56:54.102Z,5.03
2018-11-01T18:59:22.546Z,4.40
2018-11-01T19:01:50.966Z,4.03
2018-11-01T19:21:39.336Z,3.10
2018-11-01T19:41:26.949Z,2.10
2018-11-01T20:01:17.953Z,7.27
2018-11-01T20:03:46.898Z,7.07
2018-11-01T20:23:36.418Z,2.37
2018-11-01T20:26:05.047Z,2.43
2018-11-01T20:28:33.511Z,2.10
2018-11-01T20:31:02.019Z,2.30
2018-11-01T20:33:30.398Z,2.73
2018-11-01T20:35:58.826Z,2.63
2018-11-01T20:38:27.451Z,2.60
2018-11-01T20:40:55.850Z,2.97
2018-11-01T20:43:24.262Z,2.67
2018-11-01T20:45:52.702Z,2.33
2018-11-01T21:05:42.276Z,3.17
2018-11-01T21:08:10.875Z,2.73
2018-11-01T21:28:00.613Z,3.67
2018-11-01T21:30:29.298Z,3.40
2018-11-01T21:50:18.239Z,3.20
2018-11-01T21:52:47.101Z,3.27
2018-11-01T21:55:15.523Z,3.03
2018-11-01T21:57:43.946Z,3.17
2018-11-01T22:17:33.695Z,4.07
2018-11-01T22:37:23.577Z,3.90
2018-11-01T22:57:11.916Z,3.37
2018-11-01T22:59:40.371Z,3.50
2018-11-01T23:02:08.758Z,3.10
2018-11-01T23:04:37.376Z,3.17
2018-11-01T23:07:05.885Z,3.53
2018-11-01T23:09:34.291Z,3.20
2018-11-01T23:12:02.934Z,3.50
2018-11-01T23:14:31.338Z,3.40
2018-11-01T23:34:21.007Z,3.90
2018-11-01T23:54:10.050Z,4.30
2018-11-01T23:56:38.935Z,4.70
2018-11-01T23:59:07.325Z,4.53
